Time;durP1;ratioP1;P1;durP2;ratioP2;P2;SDS_P1;SDS_P2;PMS_P1;PMS_P2;Temp;Humidity;BMP_temperature;BMP_pressure;BME280_temperature;BME280_humidity;BME280_pressure;Samples;Min_cycle;Max_cycle;Signal;HPM_P1;HPM_P2
2022/05/18 00:01:01;;;;;;;18.05;5.25;;;21.10;99.90;;;;;;5012801;28;20223;-78
2022/05/18 00:03:33;;;;;;;14.27;5.03;;;21.00;99.90;;;;;;5012640;28;20697;-78
2022/05/18 00:06:02;;;;;;;12.13;4.88;;;21.00;99.90;;;;;;5012867;28;20168;-78
2022/05/18 00:08:35;;;;;;;10.88;5.25;;;21.00;99.90;;;;;;5012778;28;20168;-78
2022/05/18 00:11:07;;;;;;;6.93;4.78;;;21.00;99.90;;;;;;5012653;28;20177;-78
2022/05/18 00:13:33;;;;;;;9.68;5.10;;;21.00;99.90;;;;;;5012408;28;20180;-78
2022/05/18 00:15:58;;;;;;;8.52;5.00;;;21.00;99.90;;;;;;5012170;28;20172;-77
2022/05/18 00:18:24;;;;;;;10.82;4.75;;;20.90;99.90;;;;;;4996535;28;20196;-78
2022/05/18 00:20:49;;;;;;;9.13;4.40;;;20.80;99.90;;;;;;4998837;28;20173;-79
2022/05/18 00:23:15;;;;;;;4.57;4.18;;;21.00;99.90;;;;;;5016186;28;20204;-78
2022/05/18 00:25:41;;;;;;;10.45;4.93;;;21.10;99.90;;;;;;5016127;28;20168;-79
2022/05/18 00:28:07;;;;;;;12.45;4.75;;;21.10;99.90;;;;;;5016172;28;20189;-78
2022/05/18 00:30:34;;;;;;;4.90;4.40;;;20.90;99.90;;;;;;5016175;28;20165;-78
2022/05/18 00:33:05;;;;;;;10.45;5.10;;;20.80;99.90;;;;;;5015796;28;20183;-78
2022/05/18 00:35:32;;;;;;;12.38;5.35;;;20.80;99.90;;;;;;5016293;28;20223;-82
2022/05/18 00:37:59;;;;;;;8.82;5.03;;;20.90;99.90;;;;;;5016178;28;20238;-77
2022/05/18 00:40:25;;;;;;;9.98;4.85;;;20.90;99.90;;;;;;5015965;28;20554;-78
2022/05/18 00:42:51;;;;;;;6.72;4.78;;;20.90;99.90;;;;;;5015828;28;20694;-78
2022/05/18 00:45:17;;;;;;;18.33;4.43;;;21.00;99.90;;;;;;4998337;28;20683;-78
2022/05/18 00:47:42;;;;;;;15.18;4.63;;;21.10;99.90;;;;;;5015597;28;20184;-78
2022/05/18 00:50:20;;;;;;;20.75;4.70;;;21.20;99.90;;;;;;5015732;28;20188;-78
2022/05/18 00:53:06;;;;;;;13.60;4.40;;;21.20;99.90;;;;;;5015585;28;20207;-79
2022/05/18 00:55:37;;;;;;;18.08;4.63;;;21.20;99.90;;;;;;5015552;28;20175;-77
2022/05/18 00:58:12;;;;;;;6.28;3.90;;;21.10;99.90;;;;;;4997972;28;20184;-79
2022/05/18 01:00:39;;;;;;;7.78;4.28;;;21.00;99.90;;;;;;4997951;28;20684;-80
2022/05/18 01:03:29;;;;;;;9.45;4.55;;;20.90;99.90;;;;;;5015129;28;20203;-78
2022/05/18 01:06:01;;;;;;;14.23;4.38;;;20.80;99.90;;;;;;5015408;28;20187;-80
2022/05/18 01:08:35;;;;;;;9.70;3.78;;;20.90;99.90;;;;;;5015406;28;20561;-78
2022/05/18 01:11:01;;;;;;;6.15;3.15;;;21.10;99.90;;;;;;4997993;28;20161;-78
2022/05/18 01:13:26;;;;;;;6.18;3.35;;;20.90;99.90;;;;;;5015228;28;20629;-78
2022/05/18 01:15:52;;;;;;;7.78;3.20;;;21.00;99.90;;;;;;5015696;28;20188;-78
2022/05/18 01:18:18;;;;;;;12.20;3.42;;;21.10;99.90;;;;;;5015221;28;20196;-79
2022/05/18 01:20:45;;;;;;;7.15;2.97;;;21.20;99.90;;;;;;5015027;28;20160;-79
2022/05/18 01:23:47;;;;;;;8.45;3.78;;;21.40;99.90;;;;;;5015075;28;20214;-83
2022/05/18 01:26:31;;;;;;;8.90;3.08;;;21.50;99.90;;;;;;4997439;28;20196;-78
2022/05/18 01:28:59;;;;;;;8.43;4.10;;;21.50;99.90;;;;;;5014565;28;20773;-78
2022/05/18 01:32:02;;;;;;;7.18;3.35;;;21.50;99.90;;;;;;5014695;28;20617;-77
2022/05/18 01:34:31;;;;;;;7.63;4.03;;;21.50;99.90;;;;;;4954186;29;20182;-78
2022/05/18 01:36:57;;;;;;;9.60;4.07;;;21.40;99.90;;;;;;5004821;28;20577;-78
2022/05/18 01:39:34;;;;;;;7.75;3.78;;;21.40;99.90;;;;;;5014840;28;20561;-78
2022/05/18 01:42:21;;;;;;;3.78;3.38;;;21.40;99.90;;;;;;4996907;28;20579;-77
2022/05/18 01:44:47;;;;;;;4.90;2.90;;;21.40;99.90;;;;;;5014664;28;20525;-78
2022/05/18 01:47:13;;;;;;;6.53;3.47;;;21.40;99.90;;;;;;5014391;28;20188;-77
2022/05/18 01:49:40;;;;;;;5.75;3.35;;;21.40;99.90;;;;;;5014528;28;20716;-78
2022/05/18 01:52:07;;;;;;;10.15;3.03;;;21.40;99.90;;;;;;5014884;28;20165;-86
2022/05/18 01:54:41;;;;;;;6.90;2.88;;;21.50;99.90;;;;;;5014660;28;20625;-78
2022/05/18 01:57:07;;;;;;;5.07;2.92;;;21.50;99.90;;;;;;5014496;28;20212;-78
2022/05/18 01:59:34;;;;;;;4.80;2.45;;;21.60;99.90;;;;;;5014876;28;20180;-77
2022/05/18 02:02:00;;;;;;;9.38;2.53;;;21.60;99.90;;;;;;4996836;28;20172;-87
2022/05/18 02:04:26;;;;;;;4.93;2.60;;;21.70;99.90;;;;;;5015132;28;20627;-77
2022/05/18 02:06:51;;;;;;;3.42;2.28;;;21.90;99.90;;;;;;4997099;28;20192;-82
2022/05/18 02:09:19;;;;;;;5.22;2.65;;;22.00;99.90;;;;;;5014447;28;20235;-77
2022/05/18 02:11:45;;;;;;;4.90;2.45;;;21.80;99.90;;;;;;5014933;28;20578;-88
2022/05/18 02:14:11;;;;;;;4.93;2.25;;;21.80;99.90;;;;;;5014970;28;20161;-78
2022/05/18 02:16:37;;;;;;;12.82;2.10;;;21.70;99.90;;;;;;5015334;28;20675;-78
2022/05/18 02:19:04;;;;;;;4.38;2.10;;;21.80;99.90;;;;;;5015032;28;20175;-78
2022/05/18 02:21:29;;;;;;;7.30;2.47;;;21.80;99.90;;;;;;5014746;28;20165;-85
2022/05/18 02:23:55;;;;;;;4.07;2.40;;;22.00;99.90;;;;;;4996705;28;20216;-78
2022/05/18 02:26:21;;;;;;;6.38;2.10;;;22.00;99.90;;;;;;4997108;28;20199;-78
2022/05/18 02:28:48;;;;;;;3.70;1.90;;;21.90;99.90;;;;;;5014518;28;20254;-77
2022/05/18 02:31:13;;;;;;;4.35;2.53;;;21.80;99.90;;;;;;5014106;28;20169;-78
2022/05/18 02:33:39;;;;;;;2.25;1.63;;;21.70;99.90;;;;;;5013657;28;20311;-78
2022/05/18 02:36:10;;;;;;;5.38;2.15;;;21.70;99.90;;;;;;5014399;28;20561;-89
2022/05/18 02:38:37;;;;;;;6.07;2.20;;;21.70;99.90;;;;;;5014403;28;20168;-78
2022/05/18 02:41:03;;;;;;;6.30;2.05;;;21.70;99.90;;;;;;5014143;28;20226;-78
2022/05/18 02:43:29;;;;;;;4.05;1.80;;;21.50;99.90;;;;;;5013676;28;20621;-78
2022/05/18 02:46:16;;;;;;;8.80;2.15;;;21.50;99.90;;;;;;5013968;28;20161;-81
2022/05/18 02:48:43;;;;;;;6.78;2.63;;;21.50;99.90;;;;;;5013993;28;20195;-78
2022/05/18 02:51:10;;;;;;;8.25;2.17;;;21.50;99.90;;;;;;5020093;28;20168;-78
2022/05/18 02:53:36;;;;;;;6.50;2.28;;;21.60;99.90;;;;;;5028737;28;20169;-76
2022/05/18 02:56:06;;;;;;;3.90;2.17;;;21.60;99.90;;;;;;5029174;28;20171;-77
2022/05/18 02:58:32;;;;;;;6.72;2.00;;;21.50;99.90;;;;;;5030229;28;20172;-77
2022/05/18 03:00:58;;;;;;;7.80;2.25;;;21.30;99.90;;;;;;5015445;28;20190;-80
2022/05/18 03:03:24;;;;;;;7.03;2.40;;;21.40;99.90;;;;;;5013783;28;20236;-78
2022/05/18 03:05:49;;;;;;;6.63;2.10;;;21.50;99.90;;;;;;5014128;28;20161;-78
2022/05/18 03:08:15;;;;;;;6.90;2.50;;;21.40;99.90;;;;;;5013293;28;20649;-79
2022/05/18 03:10:41;;;;;;;4.00;2.20;;;21.50;99.90;;;;;;5013376;28;20175;-78
2022/05/18 03:13:07;;;;;;;4.70;2.10;;;21.60;99.90;;;;;;5013229;28;20165;-78
2022/05/18 03:15:33;;;;;;;5.65;2.63;;;21.80;99.90;;;;;;5013039;28;20613;-78
2022/05/18 03:17:59;;;;;;;4.95;2.25;;;21.70;99.90;;;;;;5013103;28;20184;-79
2022/05/18 03:25:56;;;;;;;8.55;2.45;;;21.40;99.90;;;;;;5013029;28;20175;-78
2022/05/18 03:28:22;;;;;;;9.70;1.80;;;21.40;99.90;;;;;;5012699;28;20274;-77
2022/05/18 03:30:47;;;;;;;8.20;2.17;;;21.50;99.90;;;;;;5013119;28;20650;-80
2022/05/18 03:33:13;;;;;;;7.40;3.90;;;21.40;99.90;;;;;;5013137;28;20255;-76
2022/05/18 03:35:39;;;;;;;5.75;3.13;;;21.40;99.90;;;;;;5012831;28;20168;-79
2022/05/18 03:38:05;;;;;;;6.00;1.95;;;21.60;99.90;;;;;;5012799;28;20219;-82
2022/05/18 03:40:37;;;;;;;5.13;2.50;;;21.60;99.90;;;;;;5012670;28;20220;-78
2022/05/18 03:43:03;;;;;;;8.07;2.40;;;21.80;99.90;;;;;;5013222;28;20207;-80
2022/05/18 03:45:30;;;;;;;5.28;1.98;;;21.80;99.90;;;;;;5012330;28;20235;-77
2022/05/18 03:47:56;;;;;;;11.43;2.20;;;21.70;99.90;;;;;;5012300;28;20193;-78
2022/05/18 03:50:21;;;;;;;10.80;2.30;;;21.70;99.90;;;;;;5012996;28;20255;-77
2022/05/18 03:52:47;;;;;;;4.05;1.98;;;21.70;99.90;;;;;;4995882;28;20543;-78
2022/05/18 03:55:13;;;;;;;9.50;2.92;;;21.60;99.90;;;;;;5016864;28;20211;-78
2022/05/18 03:57:39;;;;;;;4.30;1.95;;;21.60;99.90;;;;;;5016853;28;20652;-78
2022/05/18 04:00:08;;;;;;;4.63;2.20;;;21.50;99.90;;;;;;5016764;28;20199;-78
2022/05/18 04:02:34;;;;;;;4.75;2.38;;;21.60;99.90;;;;;;5016384;28;20196;-78
2022/05/18 04:05:00;;;;;;;5.13;2.13;;;21.60;99.90;;;;;;5016661;28;20180;-78
2022/05/18 04:07:26;;;;;;;9.68;3.25;;;21.60;99.90;;;;;;5017060;28;20571;-91
2022/05/18 04:09:51;;;;;;;5.07;2.55;;;21.50;99.90;;;;;;5017013;28;20172;-80
2022/05/18 04:12:17;;;;;;;6.80;2.60;;;21.70;99.90;;;;;;5016264;28;20215;-78
2022/05/18 04:14:43;;;;;;;9.73;3.45;;;21.70;99.90;;;;;;5016367;28;20172;-81
2022/05/18 04:17:08;;;;;;;7.90;2.70;;;21.90;99.90;;;;;;5016360;28;20196;-79
2022/05/18 04:19:35;;;;;;;4.60;2.42;;;22.00;99.90;;;;;;5016304;28;20311;-78
2022/05/18 04:22:01;;;;;;;7.53;2.67;;;22.00;99.90;;;;;;5016202;28;20187;-78
2022/05/18 04:24:26;;;;;;;11.32;3.97;;;22.00;99.90;;;;;;5016134;28;20641;-77
2022/05/18 04:26:52;;;;;;;9.45;2.92;;;21.70;99.90;;;;;;5016322;28;20194;-77
2022/05/18 04:29:17;;;;;;;7.13;2.35;;;21.60;99.90;;;;;;5016204;28;20478;-77
2022/05/18 04:31:43;;;;;;;11.68;3.40;;;21.50;99.90;;;;;;5015988;28;20180;-78
2022/05/18 04:34:09;;;;;;;7.15;2.33;;;21.30;99.90;;;;;;4998528;28;20533;-77
2022/05/18 04:36:34;;;;;;;8.13;2.65;;;21.40;99.90;;;;;;5015940;28;20188;-79
2022/05/18 04:39:00;;;;;;;19.98;3.40;;;21.40;99.90;;;;;;5015884;28;20164;-78
2022/05/18 04:41:26;;;;;;;9.70;2.28;;;21.50;99.90;;;;;;5015470;28;20762;-77
2022/05/18 04:43:51;;;;;;;8.75;2.22;;;21.50;99.90;;;;;;5015671;28;20220;-78
2022/05/18 04:46:17;;;;;;;17.08;3.15;;;21.50;99.90;;;;;;5015858;28;20637;-77
2022/05/18 04:48:42;;;;;;;11.65;2.38;;;21.60;99.90;;;;;;5015862;28;20177;-78
2022/05/18 04:51:08;;;;;;;5.82;2.17;;;21.50;99.90;;;;;;5016080;28;20168;-77
2022/05/18 04:53:35;;;;;;;4.32;1.80;;;21.50;99.90;;;;;;5015813;28;20255;-78
2022/05/18 04:56:01;;;;;;;10.20;1.77;;;21.60;99.90;;;;;;5015818;28;20183;-88
2022/05/18 04:58:27;;;;;;;6.63;2.00;;;21.60;99.90;;;;;;5015426;28;20176;-79
2022/05/18 05:00:58;;;;;;;6.28;2.25;;;21.60;99.90;;;;;;5015722;28;20507;-78
2022/05/18 05:03:24;;;;;;;11.07;1.95;;;21.70;99.90;;;;;;5015157;28;20600;-77
2022/05/18 05:05:50;;;;;;;3.63;2.13;;;21.70;99.90;;;;;;5014215;28;20244;-79
2022/05/18 05:08:16;;;;;;;9.70;2.10;;;21.70;99.90;;;;;;5015477;28;20369;-78
2022/05/18 05:10:41;;;;;;;16.58;2.10;;;21.80;99.90;;;;;;5015400;28;20172;-77
2022/05/18 05:13:07;;;;;;;2.03;1.80;;;21.70;99.90;;;;;;5015414;28;20176;-88
2022/05/18 05:15:33;;;;;;;2.13;1.63;;;21.70;99.90;;;;;;4997954;28;20176;-78
2022/05/18 05:17:58;;;;;;;10.57;2.10;;;21.80;99.90;;;;;;4998511;28;20292;-78
2022/05/18 05:20:24;;;;;;;6.18;3.10;;;22.00;99.90;;;;;;5015224;28;20164;-77
2022/05/18 05:22:50;;;;;;;13.15;2.53;;;22.20;99.90;;;;;;5014641;28;20215;-78
2022/05/18 05:25:16;;;;;;;5.43;1.95;;;22.30;99.90;;;;;;5014929;28;20165;-84
2022/05/18 05:27:42;;;;;;;13.43;2.03;;;22.40;99.90;;;;;;5015163;28;20292;-82
2022/05/18 05:30:08;;;;;;;8.73;2.65;;;22.20;99.90;;;;;;5015494;28;20176;-79
2022/05/18 05:32:35;;;;;;;29.45;11.48;;;22.10;99.90;;;;;;5015568;28;20169;-78
2022/05/18 05:35:00;;;;;;;15.88;8.40;;;22.20;99.90;;;;;;5015081;28;20176;-78
2022/05/18 05:37:27;;;;;;;107.43;42.33;;;22.20;99.90;;;;;;5015148;28;20196;-78
2022/05/18 05:39:52;;;;;;;41.80;20.27;;;22.20;99.90;;;;;;5015379;28;20185;-81
2022/05/18 05:42:18;;;;;;;6.45;4.55;;;22.40;99.90;;;;;;5015259;28;20699;-78
2022/05/18 05:44:44;;;;;;;14.10;5.90;;;22.30;99.90;;;;;;5014655;28;20176;-78
2022/05/18 05:47:11;;;;;;;15.38;8.70;;;22.30;99.90;;;;;;5014830;28;20207;-77
2022/05/18 05:49:38;;;;;;;28.17;19.50;;;22.20;99.90;;;;;;5014808;28;20176;-90
2022/05/18 05:52:05;;;;;;;13.68;4.68;;;22.10;99.90;;;;;;5014379;28;20176;-80
2022/05/18 05:54:31;;;;;;;8.55;2.40;;;22.00;99.90;;;;;;5014524;28;20636;-79
2022/05/18 05:56:56;;;;;;;4.50;2.30;;;22.00;99.90;;;;;;5014485;28;20203;-84
2022/05/18 05:59:22;;;;;;;6.15;2.28;;;21.90;99.90;;;;;;5014890;28;20169;-79
2022/05/18 06:01:48;;;;;;;9.73;2.55;;;22.00;99.90;;;;;;5014073;28;20176;-78
2022/05/18 06:04:14;;;;;;;11.27;2.88;;;22.20;99.90;;;;;;5014353;28;20215;-77
2022/05/18 06:06:40;;;;;;;6.95;2.75;;;22.00;99.90;;;;;;5014475;28;20198;-78
2022/05/18 06:09:07;;;;;;;16.45;2.60;;;22.00;99.90;;;;;;4996982;28;20169;-77
2022/05/18 06:11:36;;;;;;;12.05;3.13;;;22.00;99.90;;;;;;5014211;28;20165;-79
2022/05/18 06:14:03;;;;;;;11.25;2.88;;;22.00;99.90;;;;;;5014647;28;20255;-78
2022/05/18 06:16:28;;;;;;;7.60;2.83;;;22.00;99.90;;;;;;5013194;28;20184;-77
2022/05/18 06:18:54;;;;;;;8.18;2.97;;;22.10;99.90;;;;;;5014066;28;20176;-78
2022/05/18 06:21:20;;;;;;;9.38;2.75;;;21.80;99.90;;;;;;5014262;28;20520;-77
2022/05/18 06:23:45;;;;;;;5.38;2.75;;;21.80;99.90;;;;;;5013944;28;20696;-77
2022/05/18 06:26:11;;;;;;;5.72;2.58;;;21.90;99.90;;;;;;5014371;28;20172;-78
2022/05/18 06:28:37;;;;;;;5.28;2.38;;;21.70;99.90;;;;;;5014054;28;20168;-79
2022/05/18 06:31:04;;;;;;;4.22;2.20;;;21.70;99.90;;;;;;5015753;28;20164;-78
2022/05/18 06:33:30;;;;;;;9.00;2.65;;;21.70;99.90;;;;;;4996886;28;20231;-77
2022/05/18 06:35:55;;;;;;;10.45;2.70;;;21.70;99.90;;;;;;5014982;28;20709;-78
2022/05/18 06:38:23;;;;;;;6.68;1.92;;;21.80;99.90;;;;;;5013970;28;20660;-79
2022/05/18 06:43:32;;;;;;;8.73;2.00;;;21.80;99.90;;;;;;5011762;28;20215;-86
2022/05/18 06:46:00;;;;;;;3.67;1.90;;;22.10;99.90;;;;;;5027348;28;20171;-80
2022/05/18 06:48:25;;;;;;;3.17;1.90;;;22.40;99.90;;;;;;5033420;28;20213;-81
2022/05/18 06:50:51;;;;;;;6.30;1.98;;;22.40;99.90;;;;;;5013205;28;20252;-86
2022/05/18 06:53:17;;;;;;;2.70;1.73;;;22.50;99.90;;;;;;5012368;28;20168;-86
2022/05/18 06:55:42;;;;;;;3.95;1.70;;;22.60;99.90;;;;;;5011870;28;20247;-82
2022/05/18 06:58:08;;;;;;;2.08;1.45;;;22.80;99.90;;;;;;4995872;28;20196;-82
2022/05/18 07:00:34;;;;;;;1.95;1.38;;;22.80;99.90;;;;;;4996067;28;20267;-85
2022/05/18 07:02:59;;;;;;;7.07;1.48;;;22.70;99.90;;;;;;4995465;28;20211;-82
2022/05/18 07:05:25;;;;;;;1.85;1.25;;;22.70;99.90;;;;;;4995460;28;20643;-82
2022/05/18 07:07:50;;;;;;;8.63;1.50;;;22.80;99.90;;;;;;4995472;28;20660;-82
2022/05/18 07:10:16;;;;;;;2.38;1.15;;;23.00;99.90;;;;;;4995873;28;20255;-84
2022/05/18 07:12:42;;;;;;;3.70;1.95;;;23.10;99.90;;;;;;5013152;28;20169;-84
2022/05/18 07:15:08;;;;;;;5.78;1.60;;;23.50;99.90;;;;;;4996655;28;20172;-83
2022/05/18 07:17:34;;;;;;;9.85;1.55;;;23.60;99.90;;;;;;4996471;28;20188;-83
2022/05/18 07:20:02;;;;;;;1.95;1.38;;;23.90;99.90;;;;;;5014460;28;20168;-87
2022/05/18 07:22:28;;;;;;;10.18;1.30;;;24.10;99.90;;;;;;5030552;28;20203;-87
2022/05/18 07:24:54;;;;;;;2.80;1.48;;;24.50;99.90;;;;;;5016058;28;20181;-84
2022/05/18 07:27:19;;;;;;;3.78;1.27;;;25.10;99.90;;;;;;5030757;28;20223;-84
2022/05/18 07:29:45;;;;;;;5.03;1.60;;;25.70;99.90;;;;;;5017472;28;20157;-83
2022/05/18 07:32:13;;;;;;;1.67;1.10;;;26.10;99.90;;;;;;5019285;28;20164;-86
2022/05/18 07:34:44;;;;;;;1.70;1.10;;;25.80;99.90;;;;;;5018980;28;20199;-84
2022/05/18 07:37:10;;;;;;;7.88;1.10;;;25.90;99.90;;;;;;5008714;28;20188;-85
2022/05/18 07:39:37;;;;;;;4.28;1.27;;;25.70;99.90;;;;;;5022672;28;20176;-85
2022/05/18 07:42:05;;;;;;;4.22;0.93;;;25.70;99.90;;;;;;4998647;28;20648;-83
2022/05/18 07:44:31;;;;;;;2.13;1.27;;;25.60;99.90;;;;;;4996758;28;20519;-84
2022/05/18 07:46:57;;;;;;;2.42;1.17;;;25.70;99.90;;;;;;4997434;28;20274;-91
2022/05/18 07:49:23;;;;;;;3.95;1.23;;;25.30;99.90;;;;;;5015029;28;20173;-79
2022/05/18 07:51:49;;;;;;;3.58;1.20;;;24.90;99.90;;;;;;5014824;28;20160;-81
2022/05/18 07:54:15;;;;;;;1.42;1.15;;;25.10;99.90;;;;;;5014791;28;20181;-79
2022/05/18 07:56:41;;;;;;;0.70;0.60;;;25.00;99.90;;;;;;5013985;28;20263;-79
2022/05/18 07:59:09;;;;;;;1.27;0.70;;;24.70;99.90;;;;;;5014736;28;20207;-79
2022/05/18 08:01:36;;;;;;;1.98;0.82;;;24.50;99.90;;;;;;5013726;28;20192;-77
2022/05/18 08:04:03;;;;;;;4.75;0.45;;;23.90;99.90;;;;;;4998877;28;20231;-83
2022/05/18 08:06:28;;;;;;;8.43;0.75;;;23.70;99.90;;;;;;5014651;28;20279;-79
2022/05/18 08:08:55;;;;;;;2.08;0.77;;;23.80;99.90;;;;;;5001481;28;20211;-82
2022/05/18 08:16:53;;;;;;;2.00;0.82;;;23.80;99.90;;;;;;5027782;28;20550;-85
2022/05/18 08:19:19;;;;;;;0.70;0.70;;;23.90;99.90;;;;;;5022660;28;20176;-82
2022/05/18 08:21:47;;;;;;;1.02;0.80;;;23.90;99.90;;;;;;5035392;28;20225;-81
2022/05/18 08:24:13;;;;;;;4.90;0.73;;;24.10;99.90;;;;;;5018959;28;20207;-82
2022/05/18 08:26:49;;;;;;;0.95;0.80;;;24.30;99.90;;;;;;5034227;28;20195;-80
2022/05/18 08:29:14;;;;;;;1.67;0.60;;;24.30;99.90;;;;;;5035305;28;20175;-82
2022/05/18 08:31:40;;;;;;;0.70;0.45;;;24.40;99.90;;;;;;5037209;28;20248;-82
2022/05/18 08:34:06;;;;;;;0.73;0.50;;;24.30;99.90;;;;;;5017786;28;20180;-84
2022/05/18 08:36:33;;;;;;;7.78;0.98;;;24.50;99.90;;;;;;5001557;28;20742;-87
2022/05/18 08:38:59;;;;;;;1.23;0.60;;;24.20;99.90;;;;;;4991761;28;20176;-82
2022/05/18 08:41:34;;;;;;;3.75;0.57;;;24.00;99.90;;;;;;5018240;28;20625;-85
2022/05/18 08:44:05;;;;;;;2.92;1.15;;;24.00;99.90;;;;;;5031198;28;20207;-92
2022/05/18 08:46:45;;;;;;;0.55;0.50;;;24.20;99.90;;;;;;5001092;28;20251;-92
2022/05/18 08:49:24;;;;;;;4.78;0.80;;;24.20;99.90;;;;;;5015329;28;20236;-81
2022/05/18 08:52:21;;;;;;;0.95;0.75;;;24.30;99.90;;;;;;5018333;28;20176;-81
2022/05/18 08:55:07;;;;;;;3.63;1.10;;;24.50;99.90;;;;;;5009768;28;20172;-85
2022/05/18 08:57:41;;;;;;;1.23;1.00;;;24.50;99.90;;;;;;5015211;28;20200;-85
2022/05/18 09:00:17;;;;;;;3.30;0.70;;;24.40;99.90;;;;;;4996276;28;20507;-87
2022/05/18 09:02:44;;;;;;;0.60;0.60;;;24.50;99.90;;;;;;5010491;28;20248;-84
2022/05/18 09:05:27;;;;;;;2.50;0.70;;;24.60;99.90;;;;;;5020455;28;20177;-91
2022/05/18 09:08:05;;;;;;;0.60;0.52;;;24.90;99.90;;;;;;5019120;28;20607;-81
2022/05/18 09:10:44;;;;;;;12.00;0.85;;;25.20;99.90;;;;;;5020362;28;20567;-85
2022/05/18 09:13:10;;;;;;;8.23;0.63;;;25.50;99.90;;;;;;5016171;28;20172;-86
2022/05/18 09:16:07;;;;;;;1.38;0.68;;;25.40;99.90;;;;;;5015027;28;20227;-84
2022/05/18 09:18:51;;;;;;;4.15;0.70;;;25.50;99.90;;;;;;5015196;28;20169;-86
2022/05/18 09:21:35;;;;;;;5.60;0.90;;;25.40;99.90;;;;;;5032403;28;20534;-81
2022/05/18 09:24:04;;;;;;;9.70;0.60;;;25.30;99.90;;;;;;5035341;28;20199;-89
2022/05/18 09:26:51;;;;;;;2.58;0.80;;;25.40;99.90;;;;;;5022962;28;20189;-92
2022/05/18 09:29:30;;;;;;;3.75;0.60;;;25.00;99.90;;;;;;5017520;28;20176;-89
2022/05/18 09:31:58;;;;;;;5.15;0.90;;;25.20;99.90;;;;;;5017000;28;20684;-90
2022/05/18 09:34:43;;;;;;;2.33;0.75;;;25.40;99.90;;;;;;4996521;28;20173;-92
2022/05/18 09:37:21;;;;;;;6.18;0.88;;;25.40;99.90;;;;;;5014917;28;20203;-92
2022/05/18 09:39:55;;;;;;;1.98;0.70;;;25.20;99.90;;;;;;5000570;28;20173;-92
2022/05/18 09:42:25;;;;;;;5.55;1.20;;;25.00;99.90;;;;;;5000170;28;20183;-90
2022/05/18 09:45:10;;;;;;;6.13;0.85;;;25.30;99.90;;;;;;5017576;28;20176;-90
2022/05/18 09:47:45;;;;;;;1.38;0.82;;;25.20;99.90;;;;;;5000042;28;20279;-91
2022/05/18 09:50:12;;;;;;;1.50;0.80;;;25.30;99.90;;;;;;4999552;28;20157;-91
2022/05/18 09:52:40;;;;;;;7.05;0.65;;;25.50;99.90;;;;;;5019310;28;20178;-93
2022/05/18 09:55:12;;;;;;;2.78;0.73;;;25.50;99.90;;;;;;5009908;28;20168;-96
2022/05/18 09:57:54;;;;;;;1.50;1.00;;;25.50;99.90;;;;;;4999048;28;20238;-96
2022/05/18 10:00:24;;;;;;;4.85;1.13;;;25.70;99.90;;;;;;5027973;28;20157;-94
2022/05/18 10:08:43;;;;;;;1.80;0.80;;;25.90;99.90;;;;;;4937705;28;20180;-92
2022/05/18 10:11:18;;;;;;;1.08;0.77;;;26.10;99.90;;;;;;5000773;28;20177;-89
2022/05/18 10:13:54;;;;;;;1.33;0.52;;;25.80;99.90;;;;;;5000140;28;20168;-90
2022/05/18 10:16:36;;;;;;;2.83;1.10;;;25.80;99.90;;;;;;5000989;28;20560;-84
2022/05/18 10:19:03;;;;;;;6.32;1.05;;;25.60;99.90;;;;;;4984137;28;20263;-86
2022/05/18 10:21:55;;;;;;;4.03;0.60;;;25.70;99.90;;;;;;5000477;28;20655;-91
2022/05/18 10:24:36;;;;;;;3.85;0.88;;;25.70;99.90;;;;;;4984880;28;20315;-93
2022/05/18 10:27:09;;;;;;;3.17;1.35;;;25.60;99.90;;;;;;5002626;28;20326;-92
2022/05/18 10:29:36;;;;;;;17.10;1.42;;;25.90;99.90;;;;;;4985879;28;20626;-94
2022/05/18 10:32:04;;;;;;;16.45;1.60;;;25.80;99.90;;;;;;5002339;28;20225;-90
2022/05/18 10:34:40;;;;;;;4.43;0.70;;;26.00;99.90;;;;;;5004396;28;20252;-94
2022/05/18 10:37:10;;;;;;;2.45;0.60;;;25.80;99.90;;;;;;4971976;28;20576;-88
2022/05/18 10:39:39;;;;;;;3.80;0.85;;;25.40;99.90;;;;;;5009315;28;20231;-85
2022/05/18 10:42:23;;;;;;;4.35;1.00;;;25.40;99.90;;;;;;5013147;28;20188;-86
2022/05/18 10:44:51;;;;;;;2.75;0.80;;;25.70;99.90;;;;;;4993153;28;20207;-86
2022/05/18 10:47:24;;;;;;;1.33;0.73;;;25.90;99.90;;;;;;5010157;28;20212;-82
2022/05/18 10:49:50;;;;;;;5.60;1.08;;;25.70;99.90;;;;;;4991139;28;20178;-88
2022/05/18 10:52:19;;;;;;;28.52;1.00;;;25.60;99.90;;;;;;5007342;28;20184;-84
2022/05/18 10:54:59;;;;;;;2.25;1.05;;;25.80;99.90;;;;;;4994031;28;20169;-85
2022/05/18 10:57:38;;;;;;;2.08;0.75;;;26.00;99.90;;;;;;5009635;28;20184;-88
2022/05/18 11:00:12;;;;;;;13.48;1.00;;;25.80;99.90;;;;;;5011892;28;20184;-87
2022/05/18 11:03:25;;;;;;;6.47;1.33;;;25.60;99.90;;;;;;5004591;28;20654;-87
2022/05/18 11:06:21;;;;;;;24.88;1.77;;;25.90;99.90;;;;;;4995124;28;20231;-87
2022/05/18 11:08:48;;;;;;;2.75;0.80;;;26.20;99.90;;;;;;4981832;28;20169;-93
2022/05/18 11:11:41;;;;;;;1.52;0.80;;;26.50;99.90;;;;;;4980076;28;20178;-88
2022/05/18 11:14:20;;;;;;;3.08;1.70;;;26.40;99.90;;;;;;4997131;28;20161;-89
2022/05/18 11:16:59;;;;;;;8.20;1.00;;;26.30;99.90;;;;;;4997426;28;20712;-89
2022/05/18 11:19:38;;;;;;;2.13;1.02;;;26.30;99.90;;;;;;4979384;28;20169;-88
2022/05/18 11:22:10;;;;;;;2.53;0.93;;;26.30;99.90;;;;;;5017801;28;20194;-92
2022/05/18 11:24:40;;;;;;;7.32;0.77;;;26.50;99.90;;;;;;5035189;28;20203;-93
2022/05/18 11:27:28;;;;;;;1.55;1.10;;;26.60;99.90;;;;;;5025916;28;20191;-88
2022/05/18 11:30:35;;;;;;;3.97;1.13;;;26.50;99.90;;;;;;5047801;28;20171;-87
2022/05/18 11:33:09;;;;;;;1.20;0.90;;;26.60;99.90;;;;;;5000627;28;20244;-87
2022/05/18 11:35:56;;;;;;;7.13;0.98;;;26.50;99.90;;;;;;5001035;28;20156;-88
2022/05/18 11:38:42;;;;;;;3.03;1.30;;;26.50;99.90;;;;;;5000819;28;20203;-87
2022/05/18 11:41:45;;;;;;;3.30;1.30;;;26.70;99.90;;;;;;5039448;28;20167;-87
2022/05/18 11:44:32;;;;;;;1.42;0.90;;;26.90;99.90;;;;;;5045102;28;20580;-88
2022/05/18 11:47:35;;;;;;;11.50;1.13;;;26.50;99.90;;;;;;5017012;28;20223;-87
2022/05/18 11:50:31;;;;;;;8.85;1.00;;;26.60;99.90;;;;;;4995520;28;20186;-89
2022/05/18 11:53:06;;;;;;;3.33;1.20;;;26.60;99.90;;;;;;5019004;28;20183;-88
2022/05/18 11:56:05;;;;;;;5.72;1.00;;;26.90;99.90;;;;;;5018500;28;20620;-88
2022/05/18 11:59:02;;;;;;;14.00;3.38;;;26.90;99.90;;;;;;5025268;28;20174;-86
2022/05/18 12:02:05;;;;;;;6.25;1.13;;;27.20;99.90;;;;;;5035633;28;20148;-88
2022/05/18 12:04:46;;;;;;;1.77;1.05;;;27.10;99.90;;;;;;5051296;28;20343;-84
2022/05/18 12:07:37;;;;;;;8.45;1.60;;;27.30;99.90;;;;;;5034314;28;20233;-84
2022/05/18 12:10:24;;;;;;;72.80;3.03;;;27.30;99.90;;;;;;5035502;28;20179;-84
2022/05/18 12:13:05;;;;;;;16.70;1.85;;;27.30;99.90;;;;;;5029474;28;20230;-91
2022/05/18 12:15:42;;;;;;;27.13;2.53;;;27.20;99.90;;;;;;5018626;28;20172;-86
2022/05/18 12:18:15;;;;;;;3.35;1.40;;;27.20;99.90;;;;;;5000028;28;20192;-85
2022/05/18 12:21:10;;;;;;;9.32;2.17;;;27.00;99.90;;;;;;5000532;28;20172;-87
2022/05/18 12:23:42;;;;;;;7.25;0.73;;;27.00;99.90;;;;;;4995427;28;20223;-86
2022/05/18 12:26:08;;;;;;;2.47;0.90;;;27.20;99.90;;;;;;5001617;28;20161;-89
2022/05/18 12:28:35;;;;;;;1.90;1.38;;;27.40;99.90;;;;;;5021591;28;20185;-92
2022/05/18 12:31:01;;;;;;;3.60;1.27;;;27.40;99.90;;;;;;5000742;28;20172;-85
2022/05/18 12:33:27;;;;;;;5.20;1.25;;;26.70;99.90;;;;;;5008772;28;20180;-82
2022/05/18 12:36:12;;;;;;;2.75;1.20;;;26.70;99.90;;;;;;5010247;28;20175;-83
2022/05/18 12:38:55;;;;;;;3.95;1.00;;;26.80;99.90;;;;;;5013140;28;20176;-83
2022/05/18 12:41:30;;;;;;;3.60;1.10;;;26.90;99.90;;;;;;5005264;28;20214;-82
2022/05/18 12:44:10;;;;;;;5.30;0.88;;;26.70;99.90;;;;;;5024676;28;20199;-86
2022/05/18 12:46:51;;;;;;;5.05;0.77;;;26.90;99.90;;;;;;5012629;28;20236;-86
2022/05/18 12:49:38;;;;;;;6.13;1.35;;;26.90;99.90;;;;;;5009416;28;20233;-84
2022/05/18 12:52:16;;;;;;;2.03;0.90;;;26.90;99.90;;;;;;5017852;28;20172;-84
2022/05/18 12:54:47;;;;;;;8.13;1.05;;;27.30;99.90;;;;;;5017203;28;20176;-91
2022/05/18 12:57:41;;;;;;;3.08;1.08;;;27.40;99.90;;;;;;5017606;28;20192;-92
2022/05/18 13:00:25;;;;;;;2.60;1.00;;;27.50;99.90;;;;;;5017829;28;20176;-90
2022/05/18 13:03:09;;;;;;;1.25;0.68;;;27.30;99.90;;;;;;4999345;28;20242;-88
2022/05/18 13:05:40;;;;;;;4.28;0.85;;;27.30;99.90;;;;;;5017745;28;20573;-90
2022/05/18 13:08:35;;;;;;;2.08;0.70;;;27.60;99.90;;;;;;5018212;28;20756;-88
2022/05/18 13:11:44;;;;;;;9.73;0.70;;;27.60;99.90;;;;;;5000196;28;20215;-88
2022/05/18 13:14:34;;;;;;;0.95;0.70;;;27.80;99.90;;;;;;5000705;28;20199;-90
2022/05/18 13:16:59;;;;;;;1.40;0.93;;;27.50;99.90;;;;;;5000094;28;20246;-85
2022/05/18 13:19:30;;;;;;;0.70;0.70;;;27.50;99.90;;;;;;5000962;28;20172;-91
2022/05/18 13:22:24;;;;;;;4.15;1.27;;;27.60;99.80;;;;;;5018741;28;20222;-88
2022/05/18 13:24:55;;;;;;;2.45;1.45;;;27.80;99.50;;;;;;5017602;28;20219;-83
2022/05/18 13:27:40;;;;;;;2.42;1.20;;;27.70;99.80;;;;;;5019829;28;20185;-83